Etowah, Arkansas
Current Conditions -  °F | °C
As of 7:53 PM on Saturday 22 Nov 2014 (Local Time) from KJBR Reporting Station
Clear Clear  
Wind Chill: 50°   Ceiling: Unl
Heat Index: 50°   Visibility: 10mi
Dew Point: 44°   Wind: 3mph
Humidity: 80%   Direction: 130°SE
Pressure: 30.01"   Gusts: NA
Location:  35.73°N, 90.23°W
Report Text: KJBR 230153Z AUTO 13003KT 10SM CLR 10/07 A3001 RMK AO2 SLP163 T01000067 $
Loading
Personal Weather Stations






























Interactive Weather Map New forecast layout! Learn more

10-Day Weather Forecast

Advertisements
Track Severe Weather on mobile